createdAt,value
2023-02-07T00:00:42.485Z,980.14
2023-02-07T00:01:32.442Z,980.17
2023-02-07T00:02:22.437Z,980.21
2023-02-07T00:03:12.448Z,980.31
2023-02-07T00:04:02.452Z,980.31
2023-02-07T00:04:52.392Z,980.28
2023-02-07T00:05:42.418Z,980.32
2023-02-07T00:06:32.404Z,980.29
2023-02-07T00:07:22.385Z,980.25
2023-02-07T00:08:12.360Z,980.17
2023-02-07T00:09:02.369Z,980.24
2023-02-07T00:09:52.353Z,980.25
2023-02-07T00:10:42.354Z,980.27
2023-02-07T00:11:32.348Z,980.34
2023-02-07T00:12:22.337Z,980.28
2023-02-07T00:13:12.303Z,980.34
2023-02-07T00:14:02.324Z,980.34
2023-02-07T00:14:52.284Z,980.36
2023-02-07T00:15:42.287Z,980.39
2023-02-07T00:16:32.365Z,980.41
2023-02-07T00:17:22.260Z,980.37
2023-02-07T00:18:12.251Z,980.39
2023-02-07T00:19:02.259Z,980.37
2023-02-07T00:19:52.230Z,980.38
2023-02-07T00:20:42.222Z,980.37
2023-02-07T00:21:32.322Z,980.38
2023-02-07T00:22:22.214Z,980.40
2023-02-07T00:23:12.190Z,980.43
2023-02-07T00:24:02.196Z,980.41
2023-02-07T00:24:52.167Z,980.45
2023-02-07T00:25:42.181Z,980.41
2023-02-07T00:26:32.177Z,980.39
2023-02-07T00:27:22.170Z,980.46
2023-02-07T00:28:12.216Z,980.47
2023-02-07T00:29:02.136Z,980.44
2023-02-07T00:29:52.117Z,980.44
2023-02-07T00:30:42.190Z,980.49
2023-02-07T00:31:32.218Z,980.46
2023-02-07T00:32:22.121Z,980.49
2023-02-07T00:33:12.086Z,980.44
2023-02-07T00:34:02.082Z,980.39
2023-02-07T00:34:52.067Z,980.41
2023-02-07T00:35:42.070Z,980.43
2023-02-07T00:36:32.066Z,980.46
2023-02-07T00:37:22.050Z,980.46
2023-02-07T00:38:12.046Z,980.51
2023-02-07T00:39:02.037Z,980.53
2023-02-07T00:39:52.091Z,980.50
2023-02-07T00:40:42.009Z,980.47
2023-02-07T00:41:32.053Z,980.47
2023-02-07T00:42:21.985Z,980.44
2023-02-07T00:43:18.883Z,980.50
2023-02-07T00:44:03.005Z,980.52
2023-02-07T00:44:51.956Z,980.51
2023-02-07T00:45:42.032Z,980.53
2023-02-07T00:46:31.947Z,980.57
2023-02-07T00:47:21.953Z,980.62
2023-02-07T00:48:11.921Z,980.62
2023-02-07T00:49:01.942Z,980.61
2023-02-07T00:49:51.930Z,980.54
2023-02-07T00:50:41.925Z,980.47
2023-02-07T00:51:31.885Z,980.59
2023-02-07T00:52:21.900Z,980.61
2023-02-07T00:53:11.868Z,980.52
2023-02-07T00:54:01.891Z,980.50
2023-02-07T00:54:51.934Z,980.56
2023-02-07T00:55:41.859Z,980.60
2023-02-07T00:56:31.836Z,980.44
2023-02-07T00:57:21.832Z,980.50
2023-02-07T00:58:11.846Z,980.49
2023-02-07T00:59:01.805Z,980.43
2023-02-07T00:59:51.814Z,980.40
2023-02-07T01:00:41.793Z,980.42
2023-02-07T01:01:31.890Z,980.41
2023-02-07T01:02:21.780Z,980.36
2023-02-07T01:03:11.771Z,980.32
2023-02-07T01:04:01.766Z,980.40
2023-02-07T01:04:51.785Z,980.33
2023-02-07T01:05:41.754Z,980.31
2023-02-07T01:06:31.724Z,980.25
2023-02-07T01:07:21.726Z,980.24
2023-02-07T01:08:11.713Z,980.27
2023-02-07T01:09:01.711Z,980.21
2023-02-07T01:09:51.728Z,980.19
2023-02-07T01:10:41.714Z,980.19
2023-02-07T01:11:31.681Z,980.17
2023-02-07T01:12:21.694Z,980.18
2023-02-07T01:13:11.663Z,980.13
2023-02-07T01:14:01.658Z,980.19
2023-02-07T01:14:51.643Z,980.27
2023-02-07T01:15:41.677Z,980.22
2023-02-07T01:16:32.060Z,980.10
2023-02-07T01:17:21.634Z,980.16
2023-02-07T01:18:11.599Z,980.15
2023-02-07T01:19:01.606Z,980.15
2023-02-07T01:19:51.582Z,980.15
2023-02-07T01:20:41.583Z,980.13
2023-02-07T01:21:31.599Z,980.12
2023-02-07T01:22:21.570Z,980.17
2023-02-07T01:23:11.567Z,980.13
2023-02-07T01:24:01.574Z,980.21
2023-02-07T01:24:51.530Z,980.18
2023-02-07T01:25:41.535Z,980.19
2023-02-07T01:26:31.510Z,980.15
2023-02-07T01:27:21.528Z,980.16
2023-02-07T01:28:11.567Z,980.10
2023-02-07T01:29:01.492Z,980.10
2023-02-07T01:29:51.498Z,980.14
2023-02-07T01:30:41.534Z,980.12
2023-02-07T01:31:31.686Z,980.08
2023-02-07T01:32:21.451Z,980.13
2023-02-07T01:33:11.443Z,980.16
2023-02-07T01:34:03.088Z,980.05
2023-02-07T01:34:51.434Z,980.10
2023-02-07T01:35:41.411Z,980.14
2023-02-07T01:36:31.409Z,980.15
2023-02-07T01:37:21.400Z,980.23
2023-02-07T01:38:11.387Z,980.22
2023-02-07T01:39:01.377Z,980.20
2023-02-07T01:39:51.392Z,980.21
2023-02-07T01:40:41.371Z,980.23
2023-02-07T01:41:31.372Z,980.20
2023-02-07T01:42:21.344Z,980.18
2023-02-07T01:43:11.324Z,980.06
2023-02-07T01:44:01.328Z,980.02
2023-02-07T01:44:51.313Z,980.10
2023-02-07T01:45:41.456Z,980.06
2023-02-07T01:46:31.337Z,980.08
2023-02-07T01:47:21.323Z,980.10
2023-02-07T01:48:11.276Z,980.14
2023-02-07T01:49:01.263Z,980.20
2023-02-07T01:49:51.253Z,980.27
2023-02-07T01:50:41.283Z,980.23
2023-02-07T01:51:32.098Z,980.21
2023-02-07T01:52:21.230Z,980.27
2023-02-07T01:53:11.210Z,980.27
2023-02-07T01:54:01.214Z,980.37
2023-02-07T01:54:51.201Z,980.31
2023-02-07T01:55:41.347Z,980.28
2023-02-07T01:56:32.342Z,980.28
2023-02-07T01:57:21.207Z,980.33
2023-02-07T01:58:11.159Z,980.30
2023-02-07T01:59:01.156Z,980.34
2023-02-07T01:59:51.139Z,980.41
2023-02-07T02:00:41.151Z,980.43
2023-02-07T02:01:31.193Z,980.45
2023-02-07T02:02:21.136Z,980.52
2023-02-07T02:03:11.106Z,980.50
2023-02-07T02:04:01.096Z,980.52
2023-02-07T02:04:51.095Z,980.59
2023-02-07T02:05:41.085Z,980.60
2023-02-07T02:06:31.070Z,980.60
2023-02-07T02:07:21.080Z,980.60
2023-02-07T02:08:11.070Z,980.57
2023-02-07T02:09:01.048Z,980.74
2023-02-07T02:09:51.035Z,980.68
2023-02-07T02:10:41.066Z,980.75
2023-02-07T02:11:31.015Z,980.76
2023-02-07T02:12:21.027Z,980.74
2023-02-07T02:13:11.003Z,980.74
2023-02-07T02:14:00.994Z,980.81
2023-02-07T02:14:50.983Z,980.81
2023-02-07T02:15:41.370Z,980.78
2023-02-07T02:16:30.981Z,980.78
2023-02-07T02:17:20.952Z,980.78
2023-02-07T02:18:10.942Z,980.80
2023-02-07T02:19:00.956Z,980.74
2023-02-07T02:19:50.924Z,980.71
2023-02-07T02:20:40.924Z,980.74
2023-02-07T02:21:30.933Z,980.76
2023-02-07T02:22:20.902Z,980.66
2023-02-07T02:23:10.885Z,980.67
2023-02-07T02:24:00.884Z,980.70
2023-02-07T02:24:50.890Z,980.64
2023-02-07T02:25:40.883Z,980.58
2023-02-07T02:26:30.871Z,980.57
2023-02-07T02:27:20.848Z,980.60
2023-02-07T02:28:10.888Z,980.68
2023-02-07T02:29:00.830Z,980.72
2023-02-07T02:29:50.836Z,980.75
2023-02-07T02:30:40.832Z,980.85
2023-02-07T02:31:30.866Z,980.83
2023-02-07T02:32:20.813Z,980.87
2023-02-07T02:33:10.785Z,980.88
2023-02-07T02:34:00.808Z,980.87
2023-02-07T02:34:50.759Z,980.91
2023-02-07T02:35:41.007Z,980.90
2023-02-07T02:36:30.741Z,980.89
2023-02-07T02:37:20.756Z,980.89
2023-02-07T02:38:10.726Z,980.84
2023-02-07T02:39:00.734Z,980.83
2023-02-07T02:39:50.721Z,980.90
2023-02-07T02:40:40.698Z,980.94
2023-02-07T02:41:30.705Z,980.96
2023-02-07T02:42:20.687Z,980.93
2023-02-07T02:43:10.677Z,980.95
2023-02-07T02:44:00.679Z,980.97
2023-02-07T02:44:50.691Z,980.95
2023-02-07T02:45:40.719Z,981.01
2023-02-07T02:46:30.750Z,980.96
2023-02-07T02:47:20.649Z,981.00
2023-02-07T02:48:10.625Z,981.02
2023-02-07T02:49:00.615Z,981.02
2023-02-07T02:49:50.605Z,981.04
2023-02-07T02:50:40.597Z,981.01
2023-02-07T02:51:30.624Z,981.03
2023-02-07T02:52:20.573Z,980.99
2023-02-07T02:53:10.568Z,980.98
2023-02-07T02:54:00.568Z,980.98
2023-02-07T02:54:50.547Z,981.00
2023-02-07T02:55:40.564Z,981.00
2023-02-07T02:56:30.542Z,981.05
2023-02-07T02:57:20.531Z,981.06
2023-02-07T02:58:10.528Z,981.06
2023-02-07T02:59:00.509Z,981.09
2023-02-07T02:59:50.499Z,981.11
2023-02-07T03:00:40.513Z,981.03
2023-02-07T03:01:30.517Z,981.01
2023-02-07T03:02:20.518Z,981.01
2023-02-07T03:03:10.477Z,981.11
2023-02-07T03:04:00.456Z,981.04
2023-02-07T03:04:50.500Z,980.96
2023-02-07T03:05:40.464Z,981.09
2023-02-07T03:06:30.440Z,981.11
2023-02-07T03:07:20.456Z,981.12
2023-02-07T03:08:10.422Z,981.13
2023-02-07T03:09:00.420Z,981.11
2023-02-07T03:09:50.399Z,981.14
2023-02-07T03:10:40.412Z,981.14
2023-02-07T03:11:30.391Z,981.16
2023-02-07T03:12:20.382Z,981.19
2023-02-07T03:13:10.363Z,981.19
2023-02-07T03:14:00.351Z,981.24
2023-02-07T03:14:50.335Z,981.21
2023-02-07T03:15:40.346Z,981.18
2023-02-07T03:16:30.364Z,981.23
2023-02-07T03:17:20.320Z,981.33
2023-02-07T03:18:10.317Z,981.30
2023-02-07T03:19:00.283Z,981.24
2023-02-07T03:19:50.283Z,981.22
2023-02-07T03:20:40.282Z,981.22
2023-02-07T03:21:30.313Z,981.26
2023-02-07T03:22:20.257Z,981.24
2023-02-07T03:23:10.252Z,981.26
2023-02-07T03:24:00.244Z,981.27
2023-02-07T03:24:50.228Z,981.21
2023-02-07T03:25:40.434Z,981.24
2023-02-07T03:26:30.227Z,981.25
2023-02-07T03:27:20.230Z,981.28
2023-02-07T03:28:10.225Z,981.31
2023-02-07T03:29:00.202Z,981.33
2023-02-07T03:29:50.177Z,981.30
2023-02-07T03:30:40.211Z,981.22
2023-02-07T03:31:30.190Z,981.30
2023-02-07T03:32:20.156Z,981.45
2023-02-07T03:33:10.164Z,981.47
2023-02-07T03:34:00.154Z,981.45
2023-02-07T03:34:50.115Z,981.39
2023-02-07T03:35:40.484Z,981.50
2023-02-07T03:36:30.105Z,981.49
2023-02-07T03:37:20.105Z,981.47
2023-02-07T03:38:10.108Z,981.46
2023-02-07T03:39:00.124Z,981.50
2023-02-07T03:39:50.062Z,981.50
2023-02-07T03:40:40.052Z,981.50
2023-02-07T03:41:30.070Z,981.50
2023-02-07T03:42:20.040Z,981.50
2023-02-07T03:43:10.041Z,981.49
2023-02-07T03:44:00.011Z,981.58
2023-02-07T03:44:50.022Z,981.58
2023-02-07T03:45:40.313Z,981.50
2023-02-07T03:46:30.025Z,981.60
2023-02-07T03:47:19.991Z,981.64
2023-02-07T03:48:09.999Z,981.66
2023-02-07T03:48:59.979Z,981.64
2023-02-07T03:49:49.961Z,981.67
2023-02-07T03:50:39.972Z,981.71
2023-02-07T03:51:29.939Z,981.64
2023-02-07T03:52:19.947Z,981.74
2023-02-07T03:53:09.926Z,981.75
2023-02-07T03:53:59.939Z,981.77
2023-02-07T03:54:49.915Z,981.80
2023-02-07T03:55:40.263Z,981.82
2023-02-07T03:56:29.902Z,981.86
2023-02-07T03:57:19.907Z,981.79
2023-02-07T03:58:09.870Z,981.81
2023-02-07T03:58:59.856Z,981.78
2023-02-07T03:59:49.871Z,981.81
2023-02-07T04:00:39.851Z,981.79
2023-02-07T04:01:29.842Z,981.81
2023-02-07T04:02:19.854Z,981.84
2023-02-07T04:03:09.818Z,981.76
2023-02-07T04:03:59.814Z,981.76
2023-02-07T04:04:49.829Z,981.75
2023-02-07T04:05:40.113Z,981.73
2023-02-07T04:06:29.779Z,981.69
2023-02-07T04:07:19.782Z,981.72
2023-02-07T04:08:09.760Z,981.70
2023-02-07T04:08:59.747Z,981.74
2023-02-07T04:09:49.770Z,981.78
2023-02-07T04:10:39.751Z,981.78
2023-02-07T04:11:29.729Z,981.81
2023-02-07T04:12:19.714Z,981.81
2023-02-07T04:13:09.735Z,981.79
2023-02-07T04:13:59.695Z,981.79
2023-02-07T04:14:49.707Z,981.79
2023-02-07T04:15:39.995Z,981.75
2023-02-07T04:16:29.700Z,981.76
2023-02-07T04:17:19.666Z,981.82
2023-02-07T04:18:09.669Z,981.78
2023-02-07T04:18:59.664Z,981.86
2023-02-07T04:19:49.644Z,981.83
2023-02-07T04:20:39.618Z,981.85
2023-02-07T04:21:29.639Z,981.84
2023-02-07T04:22:19.603Z,981.83
2023-02-07T04:23:09.608Z,981.81
2023-02-07T04:23:59.624Z,981.82
2023-02-07T04:24:49.584Z,981.85
2023-02-07T04:25:39.782Z,981.87
2023-02-07T04:26:29.563Z,981.92
2023-02-07T04:27:19.566Z,981.94
2023-02-07T04:28:09.610Z,981.93
2023-02-07T04:28:59.580Z,981.88
2023-02-07T04:29:49.549Z,981.86
2023-02-07T04:30:39.559Z,981.84
2023-02-07T04:31:29.527Z,981.88
2023-02-07T04:32:19.490Z,981.89
2023-02-07T04:33:09.492Z,981.85
2023-02-07T04:33:59.483Z,981.86
2023-02-07T04:34:49.500Z,981.83
2023-02-07T04:35:39.635Z,981.88
2023-02-07T04:36:29.464Z,981.84
2023-02-07T04:37:19.456Z,981.83
2023-02-07T04:38:09.464Z,981.84
2023-02-07T04:38:59.435Z,981.87
2023-02-07T04:39:49.430Z,981.84
2023-02-07T04:40:39.429Z,981.82
2023-02-07T04:41:29.399Z,981.81
2023-02-07T04:42:19.396Z,981.83
2023-02-07T04:43:09.409Z,981.81
2023-02-07T04:43:59.374Z,981.82
2023-02-07T04:44:49.394Z,981.79
2023-02-07T04:45:39.714Z,981.76
2023-02-07T04:46:29.387Z,981.75
2023-02-07T04:47:19.365Z,981.82
2023-02-07T04:48:09.343Z,981.81
2023-02-07T04:48:59.321Z,981.77
2023-02-07T04:49:49.307Z,981.83
2023-02-07T04:50:39.326Z,981.78
2023-02-07T04:51:29.296Z,981.79
2023-02-07T04:52:19.283Z,981.81
2023-02-07T04:53:09.307Z,981.81
2023-02-07T04:53:59.259Z,981.82
2023-02-07T04:54:49.253Z,981.73
2023-02-07T04:55:39.611Z,981.68
2023-02-07T04:56:29.242Z,981.69
2023-02-07T04:57:19.253Z,981.70
2023-02-07T04:58:09.219Z,981.69
2023-02-07T04:58:59.210Z,981.70
2023-02-07T04:59:49.201Z,981.75
2023-02-07T05:00:39.209Z,981.76
2023-02-07T05:01:29.241Z,981.71
2023-02-07T05:02:19.197Z,981.75
2023-02-07T05:03:09.176Z,981.75
2023-02-07T05:03:59.158Z,981.75
2023-02-07T05:04:49.206Z,981.85
2023-02-07T05:05:39.391Z,981.80
2023-02-07T05:06:29.151Z,981.77
2023-02-07T05:07:19.126Z,981.81
2023-02-07T05:08:09.124Z,981.83
2023-02-07T05:08:59.104Z,981.78
2023-02-07T05:09:49.102Z,981.77
2023-02-07T05:10:39.157Z,981.73
2023-02-07T05:11:29.096Z,981.72
2023-02-07T05:12:19.084Z,981.71
2023-02-07T05:13:09.067Z,981.70
2023-02-07T05:13:59.052Z,981.73
2023-02-07T05:14:49.045Z,981.71
2023-02-07T05:15:39.371Z,981.73
2023-02-07T05:16:29.062Z,981.73
2023-02-07T05:17:19.030Z,981.82
2023-02-07T05:18:09.019Z,981.78
2023-02-07T05:18:59.010Z,981.77
2023-02-07T05:19:49.011Z,981.80
2023-02-07T05:20:38.982Z,981.75
2023-02-07T05:21:29.000Z,981.82
2023-02-07T05:22:18.975Z,981.87
2023-02-07T05:23:08.970Z,981.89
2023-02-07T05:23:58.949Z,981.94
2023-02-07T05:24:48.933Z,981.96
2023-02-07T05:25:39.239Z,981.96
2023-02-07T05:26:28.945Z,981.91
2023-02-07T05:27:18.924Z,981.89
2023-02-07T05:28:08.951Z,981.93
2023-02-07T05:28:58.888Z,981.93
2023-02-07T05:29:48.892Z,981.90
2023-02-07T05:30:39.058Z,981.95
2023-02-07T05:31:29.021Z,981.94
2023-02-07T05:32:18.869Z,981.90
2023-02-07T05:33:08.853Z,981.85
2023-02-07T05:33:58.858Z,981.88
2023-02-07T05:34:48.843Z,981.82
2023-02-07T05:35:39.192Z,981.86
2023-02-07T05:36:28.813Z,981.82
2023-02-07T05:37:18.821Z,981.81
2023-02-07T05:38:08.808Z,981.84
2023-02-07T05:38:58.784Z,981.80
2023-02-07T05:39:48.955Z,981.79
2023-02-07T05:40:38.768Z,981.75
2023-02-07T05:41:28.762Z,981.77
2023-02-07T05:42:18.746Z,981.76
2023-02-07T05:43:08.745Z,981.75
2023-02-07T05:43:58.728Z,981.71
2023-02-07T05:44:48.738Z,981.73
2023-02-07T05:45:39.061Z,981.79
2023-02-07T05:46:28.700Z,981.75
2023-02-07T05:47:18.698Z,981.77
2023-02-07T05:48:08.742Z,981.87
2023-02-07T05:48:58.710Z,981.83
2023-02-07T05:49:48.688Z,981.86
2023-02-07T05:50:38.700Z,981.85
2023-02-07T05:51:28.648Z,981.87
2023-02-07T05:52:18.638Z,981.82
2023-02-07T05:53:08.641Z,981.87
2023-02-07T05:53:58.642Z,981.86
2023-02-07T05:54:48.669Z,981.87
2023-02-07T05:55:38.991Z,981.91
2023-02-07T05:56:28.604Z,981.90
2023-02-07T05:57:18.591Z,981.88
2023-02-07T05:58:08.582Z,981.90
2023-02-07T05:58:58.625Z,981.89
2023-02-07T05:59:48.608Z,981.89
2023-02-07T06:00:38.579Z,981.95
2023-02-07T06:01:28.545Z,981.98
2023-02-07T06:02:18.549Z,981.93
2023-02-07T06:03:08.552Z,981.91
2023-02-07T06:03:58.518Z,981.98
2023-02-07T06:04:48.542Z,981.95
2023-02-07T06:05:38.784Z,981.97
2023-02-07T06:06:28.591Z,981.96
2023-02-07T06:07:18.489Z,982.03
2023-02-07T06:08:08.486Z,981.97
2023-02-07T06:08:58.463Z,982.06
2023-02-07T06:09:48.545Z,982.06
2023-02-07T06:10:38.464Z,982.04
2023-02-07T06:11:28.444Z,982.01
2023-02-07T06:12:18.464Z,982.03
2023-02-07T06:13:08.419Z,982.04
2023-02-07T06:13:58.404Z,982.07
2023-02-07T06:14:48.428Z,982.04
2023-02-07T06:15:38.773Z,982.07
2023-02-07T06:16:28.369Z,982.05
2023-02-07T06:17:18.398Z,982.03
2023-02-07T06:18:08.364Z,982.04
2023-02-07T06:18:58.375Z,982.02
2023-02-07T06:19:48.372Z,982.03
2023-02-07T06:20:38.329Z,982.03
2023-02-07T06:21:44.319Z,981.99
2023-02-07T06:22:19.318Z,982.02
2023-02-07T06:23:08.311Z,982.01
2023-02-07T06:23:58.297Z,981.98
2023-02-07T06:24:48.335Z,981.94
2023-02-07T06:25:38.493Z,982.00
2023-02-07T06:26:28.276Z,981.99
2023-02-07T06:27:18.274Z,981.92
2023-02-07T06:28:08.324Z,981.98
2023-02-07T06:28:58.245Z,981.94
2023-02-07T06:29:48.237Z,981.92
2023-02-07T06:30:38.274Z,981.93
2023-02-07T06:31:28.301Z,981.91
2023-02-07T06:32:18.227Z,981.91
2023-02-07T06:33:08.216Z,981.90
2023-02-07T06:33:58.226Z,981.93
2023-02-07T06:34:48.176Z,981.94
2023-02-07T06:35:38.508Z,981.92
2023-02-07T06:36:28.175Z,981.93
2023-02-07T06:37:18.208Z,981.97
2023-02-07T06:38:08.157Z,981.95
2023-02-07T06:38:58.154Z,981.91
2023-02-07T06:39:48.144Z,981.93
2023-02-07T06:40:38.132Z,981.91
2023-02-07T06:41:28.117Z,981.92
2023-02-07T06:42:18.129Z,981.96
2023-02-07T06:43:09.041Z,981.97
2023-02-07T06:43:58.095Z,981.98
2023-02-07T06:44:48.078Z,981.92
2023-02-07T06:45:38.437Z,981.98
2023-02-07T06:46:28.085Z,981.86
2023-02-07T06:47:18.074Z,981.81
2023-02-07T06:48:08.042Z,981.82
2023-02-07T06:48:58.070Z,981.80
2023-02-07T06:49:48.024Z,981.81
2023-02-07T06:50:38.040Z,981.79
2023-02-07T06:51:28.011Z,981.80
2023-02-07T06:52:18.003Z,981.85
2023-02-07T06:53:07.990Z,981.85
2023-02-07T06:53:58.013Z,981.89
2023-02-07T06:54:47.986Z,981.85
2023-02-07T06:55:38.298Z,981.89
2023-02-07T06:56:27.960Z,981.87
2023-02-07T06:57:17.989Z,981.88
2023-02-07T06:58:07.991Z,981.85
2023-02-07T06:58:58.080Z,981.86
2023-02-07T06:59:47.922Z,981.88
2023-02-07T07:00:37.911Z,981.90
2023-02-07T07:01:28.031Z,981.90
2023-02-07T07:02:17.902Z,981.87
2023-02-07T07:03:07.943Z,981.84
2023-02-07T07:03:57.891Z,981.89
2023-02-07T07:04:47.874Z,981.88
2023-02-07T07:05:38.209Z,981.88
2023-02-07T07:06:27.859Z,981.90
2023-02-07T07:07:17.850Z,981.95
2023-02-07T07:08:07.921Z,981.98
2023-02-07T07:08:57.826Z,981.99
2023-02-07T07:09:47.862Z,982.00
2023-02-07T07:10:37.863Z,982.00
2023-02-07T07:11:27.831Z,982.00
2023-02-07T07:12:17.798Z,982.01
2023-02-07T07:13:07.777Z,982.02
2023-02-07T07:13:57.770Z,981.98
2023-02-07T07:14:47.779Z,982.01
2023-02-07T07:15:38.040Z,981.96
2023-02-07T07:16:27.812Z,981.92
2023-02-07T07:17:17.749Z,981.98
2023-02-07T07:18:07.746Z,981.96
2023-02-07T07:18:57.729Z,982.01
2023-02-07T07:19:47.724Z,982.10
2023-02-07T07:20:37.727Z,982.08
2023-02-07T07:21:27.714Z,982.11
2023-02-07T07:22:18.737Z,982.09
2023-02-07T07:23:07.686Z,982.10
2023-02-07T07:23:57.691Z,982.14
2023-02-07T07:24:47.677Z,982.15
2023-02-07T07:25:38.047Z,982.20
2023-02-07T07:26:36.584Z,982.22
2023-02-07T07:27:18.640Z,982.25
2023-02-07T07:28:07.888Z,982.25
2023-02-07T07:28:57.620Z,982.27
2023-02-07T07:29:47.606Z,982.27
2023-02-07T07:30:37.657Z,982.25
2023-02-07T07:31:27.627Z,982.28
2023-02-07T07:32:28.696Z,982.27
2023-02-07T07:33:08.699Z,982.27
2023-02-07T07:33:57.797Z,982.29
2023-02-07T07:34:47.609Z,982.27
2023-02-07T07:35:38.013Z,982.26
2023-02-07T07:36:27.539Z,982.29
2023-02-07T07:37:17.543Z,982.27
2023-02-07T07:38:07.526Z,982.34
2023-02-07T07:38:57.560Z,982.37
2023-02-07T07:39:47.493Z,982.37
2023-02-07T07:40:37.884Z,982.34
2023-02-07T07:41:27.488Z,982.38
2023-02-07T07:42:17.470Z,982.43
2023-02-07T07:43:07.483Z,982.44
2023-02-07T07:43:57.452Z,982.47
2023-02-07T07:44:47.442Z,982.54
2023-02-07T07:45:37.442Z,982.48
2023-02-07T07:46:27.436Z,982.48
2023-02-07T07:47:17.417Z,982.54
2023-02-07T07:48:07.545Z,982.55
2023-02-07T07:48:57.425Z,982.54
2023-02-07T07:49:47.421Z,982.50
2023-02-07T07:50:37.948Z,982.49
2023-02-07T07:51:27.366Z,982.45
2023-02-07T07:52:17.365Z,982.49
2023-02-07T07:53:09.112Z,982.46
2023-02-07T07:53:57.369Z,982.49
2023-02-07T07:54:47.324Z,982.48
2023-02-07T07:55:37.332Z,982.47
2023-02-07T07:56:27.313Z,982.43
2023-02-07T07:57:17.863Z,982.46
2023-02-07T07:58:07.367Z,982.40
2023-02-07T07:58:57.352Z,982.38
2023-02-07T07:59:47.274Z,982.38
2023-02-07T08:00:37.714Z,982.38
2023-02-07T08:01:27.263Z,982.37
2023-02-07T08:02:17.269Z,982.44
2023-02-07T08:03:07.244Z,982.43
2023-02-07T08:03:57.301Z,982.44
2023-02-07T08:04:47.223Z,982.49
2023-02-07T08:05:37.223Z,982.50
2023-02-07T08:06:27.242Z,982.47
2023-02-07T08:07:17.199Z,982.48
2023-02-07T08:08:07.468Z,982.42
2023-02-07T08:08:57.198Z,982.48
2023-02-07T08:09:47.167Z,982.44
2023-02-07T08:10:37.447Z,982.43
2023-02-07T08:11:27.155Z,982.36
2023-02-07T08:12:17.155Z,982.47
2023-02-07T08:13:07.228Z,982.38
2023-02-07T08:13:57.129Z,982.40
2023-02-07T08:14:47.145Z,982.41
2023-02-07T08:15:37.122Z,982.37
2023-02-07T08:16:27.115Z,982.39
2023-02-07T08:17:17.097Z,982.35
2023-02-07T08:18:07.081Z,982.38
2023-02-07T08:18:57.089Z,982.27
2023-02-07T08:19:47.088Z,982.29
2023-02-07T08:20:37.438Z,982.23
2023-02-07T08:21:27.072Z,982.21
2023-02-07T08:22:17.037Z,982.16
2023-02-07T08:23:07.031Z,982.14
2023-02-07T08:23:57.040Z,982.10
2023-02-07T08:24:47.015Z,982.06
2023-02-07T08:25:37.076Z,982.06
2023-02-07T08:26:27.046Z,982.08
2023-02-07T08:27:16.988Z,982.07
2023-02-07T08:28:07.008Z,982.08
2023-02-07T08:28:56.968Z,982.11
2023-02-07T08:29:46.969Z,982.12
2023-02-07T08:30:37.187Z,982.13
2023-02-07T08:31:27.122Z,982.15
2023-02-07T08:32:16.964Z,982.11
2023-02-07T08:33:06.929Z,982.13
2023-02-07T08:33:56.952Z,982.12
2023-02-07T08:34:46.904Z,982.13
2023-02-07T08:35:36.948Z,982.19
2023-02-07T08:36:26.934Z,982.19
2023-02-07T08:37:16.909Z,982.18
2023-02-07T08:38:06.869Z,982.17
2023-02-07T08:38:56.875Z,982.23
2023-02-07T08:39:46.851Z,982.20
2023-02-07T08:40:37.324Z,982.15
2023-02-07T08:41:26.847Z,982.17
2023-02-07T08:42:16.828Z,982.17
2023-02-07T08:43:06.825Z,982.20
2023-02-07T08:43:56.808Z,982.20
2023-02-07T08:44:46.800Z,982.23
2023-02-07T08:45:37.006Z,982.23
2023-02-07T08:46:26.842Z,982.21
2023-02-07T08:47:17.930Z,982.21
2023-02-07T08:48:06.766Z,982.23
2023-02-07T08:48:56.760Z,982.21
2023-02-07T08:49:46.748Z,982.23
2023-02-07T08:50:36.738Z,982.22
2023-02-07T08:51:26.801Z,982.26
2023-02-07T08:52:16.730Z,982.21
2023-02-07T08:53:06.707Z,982.27
2023-02-07T08:53:56.708Z,982.24
2023-02-07T08:54:46.687Z,982.26
2023-02-07T08:55:36.746Z,982.22
2023-02-07T08:56:26.672Z,982.25
2023-02-07T08:57:16.679Z,982.22
2023-02-07T08:58:06.656Z,982.27
2023-02-07T08:58:56.656Z,982.28
2023-02-07T08:59:46.637Z,982.27
2023-02-07T09:00:36.721Z,982.26
2023-02-07T09:01:26.717Z,982.27
2023-02-07T09:02:16.688Z,982.31
2023-02-07T09:03:06.608Z,982.28
2023-02-07T09:03:56.606Z,982.27
2023-02-07T09:04:46.598Z,982.23
2023-02-07T09:05:36.597Z,982.28
2023-02-07T09:06:26.573Z,982.27
2023-02-07T09:07:16.653Z,982.26
2023-02-07T09:08:06.573Z,982.29
2023-02-07T09:08:56.537Z,982.26
2023-02-07T09:09:46.525Z,982.23
2023-02-07T09:10:36.779Z,982.24
2023-02-07T09:11:26.547Z,982.24
2023-02-07T09:12:16.574Z,982.29
2023-02-07T09:13:06.816Z,982.23
2023-02-07T09:13:56.496Z,982.26
2023-02-07T09:14:46.476Z,982.27
2023-02-07T09:15:36.470Z,982.26
2023-02-07T09:16:26.486Z,982.24
2023-02-07T09:17:16.540Z,982.27
2023-02-07T09:18:06.485Z,982.26
2023-02-07T09:18:56.514Z,982.24
2023-02-07T09:19:46.432Z,982.18
2023-02-07T09:20:36.893Z,982.26
2023-02-07T09:21:26.411Z,982.23
2023-02-07T09:22:16.403Z,982.23
2023-02-07T09:23:06.482Z,982.24
2023-02-07T09:23:56.383Z,982.26
2023-02-07T09:24:46.365Z,982.25
2023-02-07T09:25:36.374Z,982.29
2023-02-07T09:26:26.382Z,982.25
2023-02-07T09:27:16.375Z,982.30
2023-02-07T09:28:06.399Z,982.31
2023-02-07T09:28:56.345Z,982.33
2023-02-07T09:29:46.312Z,982.35
2023-02-07T09:30:36.472Z,982.30
2023-02-07T09:31:26.448Z,982.33
2023-02-07T09:32:16.297Z,982.36
2023-02-07T09:33:06.278Z,982.36
2023-02-07T09:33:56.346Z,982.37
2023-02-07T09:34:46.262Z,982.39
2023-02-07T09:35:36.261Z,982.39
2023-02-07T09:36:26.257Z,982.41
2023-02-07T09:37:16.242Z,982.41
2023-02-07T09:38:06.238Z,982.44
2023-02-07T09:38:56.233Z,982.46
2023-02-07T09:39:46.238Z,982.46
2023-02-07T09:40:36.663Z,982.46
2023-02-07T09:41:26.191Z,982.47
2023-02-07T09:42:16.241Z,982.46
2023-02-07T09:43:06.338Z,982.49
2023-02-07T09:43:56.302Z,982.49
2023-02-07T09:44:46.431Z,982.47
2023-02-07T09:45:36.204Z,982.52
2023-02-07T09:46:26.220Z,982.47
2023-02-07T09:47:16.184Z,982.45
2023-02-07T09:48:06.156Z,982.48
2023-02-07T09:48:56.116Z,982.45
2023-02-07T09:49:46.110Z,982.49
2023-02-07T09:50:36.235Z,982.53
2023-02-07T09:51:26.094Z,982.55
2023-02-07T09:52:18.269Z,982.60
2023-02-07T09:53:06.071Z,982.61
2023-02-07T09:53:56.059Z,982.59
2023-02-07T09:54:46.061Z,982.62
2023-02-07T09:55:36.133Z,982.66
2023-02-07T09:56:26.042Z,982.72
2023-02-07T09:57:16.016Z,982.70
2023-02-07T09:58:06.028Z,982.71
2023-02-07T09:58:56.038Z,982.68
2023-02-07T09:59:45.995Z,982.75
2023-02-07T10:00:36.024Z,982.72
2023-02-07T10:01:26.094Z,982.73
2023-02-07T10:02:16.106Z,982.72
2023-02-07T10:03:05.960Z,982.66
2023-02-07T10:03:55.943Z,982.67
2023-02-07T10:04:45.942Z,982.67
2023-02-07T10:05:35.928Z,982.65
2023-02-07T10:06:25.955Z,982.65
2023-02-07T10:07:15.939Z,982.69
2023-02-07T10:08:05.921Z,982.68
2023-02-07T10:08:55.915Z,982.67
2023-02-07T10:09:45.894Z,982.66
2023-02-07T10:10:35.870Z,982.64
2023-02-07T10:11:25.911Z,982.62
2023-02-07T10:12:15.860Z,982.59
2023-02-07T10:13:07.430Z,982.51
2023-02-07T10:13:55.847Z,982.49
2023-02-07T10:14:45.834Z,982.52
2023-02-07T10:15:35.855Z,982.50
2023-02-07T10:16:25.853Z,982.48
2023-02-07T10:17:30.606Z,982.48
2023-02-07T10:18:06.854Z,982.51
2023-02-07T10:18:55.802Z,982.52
2023-02-07T10:19:45.776Z,982.55
2023-02-07T10:20:35.764Z,982.57
2023-02-07T10:21:25.755Z,982.60
2023-02-07T10:22:15.757Z,982.57
2023-02-07T10:23:05.781Z,982.64
2023-02-07T10:23:55.902Z,982.65